Terminal Aerodrome Forecast
Issued by NWS

Home | Current Version | Previous Version | Text Only | Print | Product List | Glossary On
Versions: 1 2 3 4 5 6 7 8 9 10 11 12 13 14 15
000
FTUS44 KEPZ 220500
TAFDMN
TAF
KDMN 220526Z 2206/2306 24010KT P6SM VCTS SCT060CB BKN150
      TEMPO 2207/2211 6SM -TSRA SCT025 BKN050CB
     FM221200 19005KT P6SM -SHRA FEW025 BKN040 OVC070
      TEMPO 2212/2215 28012G22KT 5SM -SHRA
     FM221700 20007KT P6SM SCT040 BKN070 OVC110
     FM222200 23008KT P6SM FEW050 SCT080 OVC120
     FM230300 26006KT P6SM FEW050 SCT080 BKN120=

USA.gov is the U.S. government's official web portal to all federal, state and local government web resources and services.